Festivo — EAEQ — position and weather

sailwx.info

Track history (hours):
 
Tides and Currents Weather Stations Pressure Air Temp Water Temp Dewpoint Dewpoint Depression Visibility Wind Speed Wind Dir Waves Ship Positions

Festivo

Last reported at 2015-Aug-21 02:33 UTC. Time now 2015-Aug-29 06:08 UTC.
Position N 35°30' W 002°50'.
Warning: this ship's position is 8 days out of date.

Length 136 m; draft 4.5 m.

Type: Cargo ship. MMSI: 225410000.

Date/timePositionNaut miles runAvg speedWind from/ knotsBaromVisibWave heightAir tempDewpointWater temp
2015-Aug-21 02:33N 35°30' W 002°50'1110.9
2015-Aug-21 01:33N 35°33' W 003°03'  
2015-Aug-17 21:11N 36°36' W 004°25'5 0.2
2015-Aug-16 20:18N 36°37' W 004°18'810.5
2015-Aug-16 19:32N 36°31' W 004°11'1010.6
2015-Aug-16 18:33N 36°23' W 004°02'1010.2
2015-Aug-16 17:34N 36°16' W 003°54'30 1.3
2015-Aug-15 17:33N 36°34' W 004°24'  
2015-Aug-12 11:33N 35°43' W 003°15'2311.2
2015-Aug-12 09:33N 35°27' W 002°55'  
Track history (hours):
 
Tides and Currents Weather Stations Pressure Air Temp Water Temp Dewpoint Dewpoint Depression Visibility Wind Speed Wind Dir Waves Ship Positions

Festivo

Last reported at 2015-Aug-21 02:33 UTC. Time now 2015-Aug-29 06:08 UTC.
Position N 35°30' W 002°50'.
Warning: this ship's position is 8 days out of date.

Length 136 m; draft 4.5 m.

Type: Cargo ship. MMSI: 225410000.

Date/timePositionNaut miles runAvg speedWind from/ knotsBaromVisibWave heightAir tempDewpointWater temp
2015-Aug-21 02:33N 35°30' W 002°50'1110.9
2015-Aug-21 01:33N 35°33' W 003°03'  
2015-Aug-17 21:11N 36°36' W 004°25'5 0.2
2015-Aug-16 20:18N 36°37' W 004°18'810.5
2015-Aug-16 19:32N 36°31' W 004°11'1010.6
2015-Aug-16 18:33N 36°23' W 004°02'1010.2
2015-Aug-16 17:34N 36°16' W 003°54'30 1.3
2015-Aug-15 17:33N 36°34' W 004°24'  
2015-Aug-12 11:33N 35°43' W 003°15'2311.2
2015-Aug-12 09:33N 35°27' W 002°55'  

Dump ship's entire track history